createdAt,value
2018-03-23T04:26:44.368Z,97.10
2018-03-23T04:29:16.503Z,97.10
2018-03-23T04:31:48.609Z,97.00
2018-03-23T04:34:20.499Z,96.90
2018-03-23T04:36:53.131Z,96.70
2018-03-23T04:39:26.078Z,96.60
2018-03-23T04:41:57.959Z,96.60
2018-03-23T04:44:29.851Z,96.40
2018-03-23T04:47:01.724Z,96.40
2018-03-23T04:49:33.645Z,96.30
2018-03-23T04:52:05.528Z,96.20
2018-03-23T04:54:37.420Z,96.10
2018-03-23T04:57:10.053Z,96.00
2018-03-23T04:59:42.164Z,95.80
2018-03-23T05:02:14.807Z,96.00
2018-03-23T05:04:46.696Z,95.70
2018-03-23T05:07:19.340Z,95.70
2018-03-23T05:09:51.223Z,95.60
2018-03-23T05:12:23.872Z,95.30
2018-03-23T05:14:55.758Z,95.30
2018-03-23T05:17:27.631Z,95.30
2018-03-23T05:19:59.824Z,95.40
2018-03-23T05:22:31.988Z,95.30
2018-03-23T05:25:03.875Z,95.30
2018-03-23T05:27:35.742Z,95.30
2018-03-23T05:30:07.648Z,95.10
2018-03-23T05:32:40.510Z,95.10
2018-03-23T05:35:12.399Z,95.10
2018-03-23T05:37:45.399Z,94.80
2018-03-23T05:40:17.288Z,94.80
2018-03-23T05:42:49.203Z,95.00
2018-03-23T05:45:21.856Z,94.80
2018-03-23T05:47:53.738Z,94.80
2018-03-23T05:50:26.383Z,94.90
2018-03-23T05:52:58.264Z,94.90
2018-03-23T05:55:30.464Z,94.70
2018-03-23T05:58:02.337Z,94.60
2018-03-23T06:00:34.220Z,94.60
2018-03-23T06:03:06.091Z,94.50
2018-03-23T06:05:38.318Z,94.50
2018-03-23T06:08:10.191Z,94.40
2018-03-23T06:10:42.092Z,94.30
2018-03-23T06:13:13.964Z,94.30
2018-03-23T06:15:45.853Z,94.30
2018-03-23T06:18:17.748Z,94.20
2018-03-23T06:20:49.631Z,94.30
2018-03-23T06:23:21.507Z,94.40
2018-03-23T06:25:54.173Z,94.20
2018-03-23T06:28:26.042Z,94.10
2018-03-23T06:30:57.933Z,94.10
2018-03-23T06:33:29.813Z,94.10
2018-03-23T06:36:01.709Z,94.00
2018-03-23T06:38:33.583Z,94.00
2018-03-23T06:41:05.471Z,93.80
2018-03-23T06:43:37.351Z,93.60
2018-03-23T06:46:09.287Z,93.70
2018-03-23T06:48:41.923Z,93.70
2018-03-23T06:51:13.820Z,93.70
2018-03-23T06:53:46.500Z,93.60
2018-03-23T06:56:19.152Z,93.60
2018-03-23T06:58:51.044Z,93.50
2018-03-23T07:01:23.692Z,93.60
2018-03-23T07:03:55.572Z,93.60
2018-03-23T07:06:28.227Z,93.80
2018-03-23T07:09:00.096Z,93.80
2018-03-23T07:11:31.979Z,93.70
2018-03-23T07:14:03.941Z,93.90
2018-03-23T07:16:35.827Z,93.90
2018-03-23T07:19:07.708Z,93.70
2018-03-23T07:21:39.617Z,93.80
2018-03-23T07:24:12.302Z,93.80
2018-03-23T07:26:44.951Z,93.60
2018-03-23T07:29:16.856Z,93.50
2018-03-23T07:31:48.735Z,93.80
2018-03-23T07:34:20.617Z,93.60
2018-03-23T07:36:52.507Z,93.70
2018-03-23T07:39:25.153Z,93.80
2018-03-23T07:41:57.367Z,93.50
2018-03-23T07:44:29.239Z,92.90
2018-03-23T07:47:01.119Z,93.20
2018-03-23T07:49:33.000Z,93.30
2018-03-23T07:52:04.879Z,92.90
2018-03-23T07:54:37.082Z,92.70
2018-03-23T07:57:08.995Z,92.30
2018-03-23T07:59:40.876Z,91.50
2018-03-23T08:02:13.788Z,91.10
2018-03-23T08:04:45.947Z,91.00
2018-03-23T08:07:18.114Z,90.40
2018-03-23T08:09:49.999Z,90.20
2018-03-23T08:12:21.890Z,88.70
2018-03-23T08:14:53.762Z,87.30
2018-03-23T08:17:25.672Z,88.00
2018-03-23T08:19:57.546Z,88.10
2018-03-23T08:22:29.439Z,88.10
2018-03-23T08:25:02.091Z,86.60
2018-03-23T08:27:33.979Z,86.50
2018-03-23T08:30:05.860Z,86.20
2018-03-23T08:32:38.559Z,86.70
2018-03-23T08:35:10.428Z,86.70
2018-03-23T08:37:42.344Z,86.90
2018-03-23T08:40:14.233Z,84.30
2018-03-23T08:42:46.401Z,84.10
2018-03-23T08:45:18.292Z,84.00
2018-03-23T08:47:50.203Z,84.70
2018-03-23T08:50:22.840Z,85.20
2018-03-23T08:52:54.729Z,85.20
2018-03-23T08:55:26.604Z,85.60
2018-03-23T08:57:59.255Z,84.70
2018-03-23T09:00:31.362Z,84.70
2018-03-23T09:03:03.243Z,84.50
2018-03-23T09:05:35.119Z,85.20
2018-03-23T09:08:07.012Z,84.90
2018-03-23T09:10:38.884Z,84.20
2018-03-23T09:13:11.539Z,82.30
2018-03-23T09:15:43.423Z,82.20
2018-03-23T09:18:16.074Z,83.00
2018-03-23T09:20:48.197Z,82.90
2018-03-23T09:23:20.079Z,83.00
2018-03-23T09:25:51.951Z,83.70
2018-03-23T09:28:23.834Z,82.70
2018-03-23T09:30:55.720Z,82.60
2018-03-23T09:33:27.617Z,81.80
2018-03-23T09:35:59.496Z,81.70
2018-03-23T09:38:31.404Z,81.30
2018-03-23T09:41:03.280Z,80.00
2018-03-23T09:43:35.160Z,80.70
2018-03-23T09:46:07.043Z,79.70
2018-03-23T09:48:38.942Z,79.20
2018-03-23T09:51:11.584Z,77.90
2018-03-23T09:53:43.482Z,77.90
2018-03-23T09:56:16.125Z,77.30
2018-03-23T09:58:48.024Z,77.30
2018-03-23T10:01:19.894Z,76.20
2018-03-23T10:03:51.881Z,77.00
2018-03-23T10:06:23.662Z,75.80
2018-03-23T10:08:55.881Z,76.00
2018-03-23T10:11:27.748Z,78.40
2018-03-23T10:13:59.675Z,78.20
2018-03-23T10:16:32.311Z,78.40
2018-03-23T10:19:04.224Z,78.40
2018-03-23T10:21:36.878Z,78.50
2018-03-23T10:24:08.755Z,78.40
2018-03-23T10:26:41.400Z,77.70
2018-03-23T10:29:13.300Z,77.60
2018-03-23T10:31:45.950Z,78.60
2018-03-23T10:34:17.848Z,78.60
2018-03-23T10:36:49.718Z,77.40
2018-03-23T10:39:21.875Z,78.00
2018-03-23T10:41:54.040Z,78.80
2018-03-23T10:44:25.936Z,79.20
2018-03-23T10:46:57.819Z,78.30
2018-03-23T10:49:29.712Z,77.60
2018-03-23T10:52:02.444Z,76.90
2018-03-23T10:54:34.347Z,76.90
2018-03-23T10:57:07.089Z,75.60
2018-03-23T10:59:39.200Z,75.60
2018-03-23T11:02:11.850Z,74.60
2018-03-23T11:04:43.792Z,74.50
2018-03-23T11:07:15.659Z,76.90
2018-03-23T11:09:47.636Z,77.20
2018-03-23T11:12:19.731Z,76.80
2018-03-23T11:14:51.752Z,77.70
2018-03-23T11:17:23.619Z,78.40
2018-03-23T11:19:55.516Z,79.00
2018-03-23T11:22:27.387Z,80.00
2018-03-23T11:24:59.279Z,78.90
2018-03-23T11:27:31.152Z,79.30
2018-03-23T11:30:03.044Z,78.90
2018-03-23T11:32:35.699Z,78.40
2018-03-23T11:35:07.579Z,78.40
2018-03-23T11:37:40.215Z,78.40
2018-03-23T11:40:12.109Z,78.40
2018-03-23T11:42:44.747Z,78.00
2018-03-23T11:45:16.636Z,77.30
2018-03-23T11:47:48.499Z,77.60
2018-03-23T11:50:20.391Z,78.40
2018-03-23T11:52:52.265Z,79.10
2018-03-23T11:55:24.151Z,78.80
2018-03-23T11:57:56.024Z,79.20
2018-03-23T12:00:28.236Z,79.50
2018-03-23T12:03:00.147Z,79.40
2018-03-23T12:05:32.364Z,79.40
2018-03-23T12:08:04.326Z,79.40
2018-03-23T12:10:36.978Z,78.60
2018-03-23T12:13:08.863Z,78.60
2018-03-23T12:15:40.752Z,78.90
2018-03-23T12:18:12.624Z,79.40
2018-03-23T12:20:44.521Z,79.80
2018-03-23T12:23:16.384Z,79.00
2018-03-23T12:25:49.048Z,78.90
2018-03-23T12:28:21.002Z,78.80
2018-03-23T12:30:52.893Z,78.90
2018-03-23T12:33:25.535Z,79.20
2018-03-23T12:35:57.492Z,79.20
2018-03-23T12:38:29.452Z,79.60
2018-03-23T12:41:01.842Z,79.60
2018-03-23T12:43:33.776Z,78.90
2018-03-23T12:46:05.644Z,79.10
2018-03-23T12:48:37.544Z,80.20
2018-03-23T12:51:10.206Z,79.60
2018-03-23T12:53:42.070Z,79.60
2018-03-23T12:56:14.007Z,79.60
2018-03-23T12:58:45.851Z,79.60
2018-03-23T13:01:17.739Z,79.70
2018-03-23T13:03:49.611Z,79.10
2018-03-23T13:06:21.499Z,79.30
2018-03-23T13:08:53.363Z,79.40
2018-03-23T13:11:25.527Z,79.50
2018-03-23T13:13:57.395Z,79.40
2018-03-23T13:16:29.279Z,79.90
2018-03-23T13:19:01.209Z,80.10
2018-03-23T13:21:33.100Z,79.20
2018-03-23T13:24:04.973Z,79.20
2018-03-23T13:26:36.888Z,79.20
2018-03-23T13:29:09.770Z,79.60
2018-03-23T13:31:41.944Z,79.60
2018-03-23T13:34:13.811Z,79.90
2018-03-23T13:36:45.691Z,79.70
2018-03-23T13:39:17.564Z,79.70
2018-03-23T13:41:49.463Z,79.50
2018-03-23T13:44:22.102Z,79.50
2018-03-23T13:46:53.998Z,79.50
2018-03-23T13:49:26.640Z,80.50
2018-03-23T13:51:58.537Z,79.90
2018-03-23T13:54:31.162Z,78.80
2018-03-23T13:57:03.115Z,78.60
2018-03-23T13:59:34.999Z,78.80
2018-03-23T14:02:06.892Z,78.90
2018-03-23T14:04:39.695Z,78.70
2018-03-23T14:07:12.682Z,78.50
2018-03-23T14:09:44.547Z,78.50
2018-03-23T14:12:16.431Z,78.90
2018-03-23T14:14:48.324Z,78.70
2018-03-23T14:17:20.218Z,78.50
2018-03-23T14:19:53.208Z,78.30
2018-03-23T14:22:25.105Z,78.30
2018-03-23T14:24:56.972Z,78.10
2018-03-23T14:27:28.863Z,77.90
2018-03-23T14:30:00.795Z,78.30
2018-03-23T14:32:32.708Z,78.20
2018-03-23T14:35:06.148Z,78.00
2018-03-23T14:37:38.060Z,77.80
2018-03-23T14:40:10.700Z,77.70
2018-03-23T14:42:42.580Z,77.70
2018-03-23T14:45:14.451Z,78.20
2018-03-23T14:47:47.104Z,78.60
2018-03-23T14:50:18.976Z,78.60
2018-03-23T14:52:51.172Z,77.40
2018-03-23T14:55:23.080Z,77.30
2018-03-23T14:57:54.955Z,77.30
2018-03-23T15:00:26.828Z,77.10
2018-03-23T15:02:58.711Z,77.10
2018-03-23T15:05:30.584Z,77.40
2018-03-23T15:08:02.463Z,76.40
2018-03-23T15:10:34.351Z,76.60
2018-03-23T15:13:06.456Z,77.00
2018-03-23T15:15:38.331Z,76.40
2018-03-23T15:18:10.215Z,76.60
2018-03-23T15:20:42.118Z,76.60
2018-03-23T15:23:14.768Z,76.70
2018-03-23T15:25:46.641Z,76.60
2018-03-23T15:28:18.580Z,76.90
2018-03-23T15:30:50.404Z,76.80
2018-03-23T15:33:22.288Z,76.40
2018-03-23T15:35:54.217Z,76.00
2018-03-23T15:38:26.111Z,76.50
2018-03-23T15:40:57.999Z,76.70
2018-03-23T15:43:29.880Z,76.60
2018-03-23T15:46:02.528Z,77.20
2018-03-23T15:48:34.415Z,77.10
2018-03-23T15:51:07.122Z,77.40
2018-03-23T15:53:38.970Z,77.30
2018-03-23T15:56:11.603Z,77.90
2018-03-23T15:58:43.495Z,77.90
2018-03-23T16:01:16.189Z,78.20
2018-03-23T16:03:48.071Z,78.10
2018-03-23T16:06:20.219Z,78.10
2018-03-23T16:08:52.103Z,78.10
2018-03-23T16:11:24.244Z,78.60
2018-03-23T16:13:56.149Z,78.80
2018-03-23T16:16:28.039Z,79.20
2018-03-23T16:19:00.695Z,79.20
2018-03-23T16:21:32.579Z,79.20
2018-03-23T16:24:05.232Z,79.00
2018-03-23T16:26:37.121Z,79.00
2018-03-23T16:29:09.779Z,79.10
2018-03-23T16:31:42.551Z,79.10
2018-03-23T16:34:14.441Z,80.10
2018-03-23T16:36:47.084Z,80.00
2018-03-23T16:39:18.971Z,79.80
2018-03-23T16:41:50.839Z,79.90
2018-03-23T16:44:23.497Z,81.00
2018-03-23T16:46:55.367Z,80.20
2018-03-23T16:49:27.268Z,80.50
2018-03-23T16:51:59.472Z,80.80
2018-03-23T16:54:31.312Z,80.50
2018-03-23T16:57:03.195Z,80.60
2018-03-23T16:59:35.080Z,80.80
2018-03-23T17:02:07.723Z,81.30
2018-03-23T17:04:40.402Z,80.70
2018-03-23T17:07:12.307Z,80.70
2018-03-23T17:09:44.967Z,81.70
2018-03-23T17:12:16.883Z,81.70
2018-03-23T17:14:48.792Z,81.50
2018-03-23T17:17:20.679Z,81.30
2018-03-23T17:19:52.563Z,81.50
2018-03-23T17:22:24.495Z,81.10
2018-03-23T17:24:56.387Z,80.60
2018-03-23T17:27:28.263Z,80.60
2018-03-23T17:30:00.158Z,80.20
2018-03-23T17:32:32.039Z,80.00
2018-03-23T17:35:03.959Z,80.70
2018-03-23T17:37:35.839Z,80.70
2018-03-23T17:40:07.723Z,80.30
2018-03-23T17:42:39.644Z,80.50
2018-03-23T17:45:11.544Z,80.80
2018-03-23T17:47:43.716Z,80.50
2018-03-23T17:50:15.894Z,80.70
2018-03-23T17:52:47.883Z,80.60
2018-03-23T17:55:19.768Z,80.80
2018-03-23T17:57:51.670Z,81.00
2018-03-23T18:00:23.556Z,81.00
2018-03-23T18:02:55.427Z,81.20
2018-03-23T18:05:27.312Z,81.60
2018-03-23T18:07:59.196Z,81.00
2018-03-23T18:10:31.088Z,81.60
2018-03-23T18:13:02.968Z,81.70
2018-03-23T18:15:34.883Z,81.50
2018-03-23T18:18:07.052Z,81.50
2018-03-23T18:20:38.936Z,81.70
2018-03-23T18:23:10.812Z,81.40
2018-03-23T18:25:42.709Z,81.50
2018-03-23T18:28:14.579Z,81.60
2018-03-23T18:30:47.231Z,82.60
2018-03-23T18:33:19.106Z,82.50
2018-03-23T18:35:51.811Z,82.90
2018-03-23T18:38:23.692Z,82.80
2018-03-23T18:40:55.580Z,82.30
2018-03-23T18:43:27.691Z,82.20
2018-03-23T18:46:00.350Z,82.00
2018-03-23T18:48:32.992Z,81.80
2018-03-23T18:51:05.117Z,81.80
2018-03-23T18:53:36.991Z,81.80
2018-03-23T18:56:08.887Z,81.50
2018-03-23T18:58:40.999Z,81.40
2018-03-23T19:01:13.675Z,81.60
2018-03-23T19:03:46.331Z,81.70
2018-03-23T19:06:18.228Z,81.70
2018-03-23T19:08:50.105Z,82.00
2018-03-23T19:11:21.992Z,81.90
2018-03-23T19:13:53.887Z,81.80
2018-03-23T19:16:26.911Z,82.00
2018-03-23T19:18:58.804Z,82.00
2018-03-23T19:21:30.705Z,82.20
2018-03-23T19:24:03.343Z,82.10
2018-03-23T19:26:35.226Z,82.00
2018-03-23T19:29:07.875Z,81.30
2018-03-23T19:31:40.807Z,81.50
2018-03-23T19:34:12.907Z,81.50
2018-03-23T19:36:45.560Z,81.60
2018-03-23T19:39:17.440Z,81.60
2018-03-23T19:41:49.330Z,81.90
2018-03-23T19:44:21.203Z,81.50
2018-03-23T19:46:53.864Z,81.80
2018-03-23T19:49:25.737Z,81.70
2018-03-23T19:51:58.407Z,81.60
2018-03-23T19:54:30.617Z,81.50
2018-03-23T19:57:02.501Z,81.70
2018-03-23T19:59:34.374Z,81.80
2018-03-23T20:02:06.267Z,82.10
2018-03-23T20:04:38.144Z,81.70
2018-03-23T20:07:10.796Z,81.50
2018-03-23T20:09:42.669Z,81.50
2018-03-23T20:12:15.371Z,81.90
2018-03-23T20:14:47.244Z,81.80
2018-03-23T20:17:19.136Z,81.70
2018-03-23T20:19:51.063Z,81.20
2018-03-23T20:22:23.219Z,81.90
2018-03-23T20:24:55.098Z,81.90
2018-03-23T20:27:26.984Z,82.20
2018-03-23T20:29:58.871Z,81.50
2018-03-23T20:32:30.795Z,82.20
2018-03-23T20:35:02.691Z,81.90
2018-03-23T20:37:34.889Z,82.00
2018-03-23T20:40:07.051Z,82.50
2018-03-23T20:42:38.964Z,81.60
2018-03-23T20:45:10.840Z,82.00
2018-03-23T20:47:42.728Z,82.10
2018-03-23T20:50:15.380Z,82.00
2018-03-23T20:52:47.283Z,82.00
2018-03-23T20:55:19.445Z,82.20
2018-03-23T20:57:51.323Z,82.40
2018-03-23T21:00:23.199Z,82.20
2018-03-23T21:02:55.092Z,82.20
2018-03-23T21:05:26.976Z,81.90
2018-03-23T21:07:58.867Z,82.00
2018-03-23T21:10:30.774Z,82.00
2018-03-23T21:13:02.780Z,82.00
2018-03-23T21:15:34.652Z,81.70
2018-03-23T21:18:06.903Z,82.10
2018-03-23T21:20:38.793Z,82.20
2018-03-23T21:23:10.695Z,82.60
2018-03-23T21:25:43.340Z,82.10
2018-03-23T21:28:16.728Z,82.70
2018-03-23T21:30:48.604Z,82.20
2018-03-23T21:33:20.504Z,82.80
2018-03-23T21:35:52.392Z,82.60
2018-03-23T21:38:24.271Z,82.40
2018-03-23T21:40:56.912Z,82.10
2018-03-23T21:43:28.798Z,82.80
2018-03-23T21:46:00.729Z,81.70
2018-03-23T21:48:32.624Z,82.10
2018-03-23T21:51:04.500Z,81.70
2018-03-23T21:53:36.387Z,81.50
2018-03-23T21:56:09.031Z,81.60
2018-03-23T21:58:40.916Z,81.60
2018-03-23T22:01:12.787Z,82.50
2018-03-23T22:03:45.467Z,82.90
2018-03-23T22:06:18.128Z,81.90
2018-03-23T22:08:50.007Z,81.80
2018-03-23T22:11:21.896Z,82.40
2018-03-23T22:13:53.783Z,82.40
2018-03-23T22:16:25.664Z,82.20
2018-03-23T22:18:57.567Z,82.00
2018-03-23T22:21:29.471Z,82.10
2018-03-23T22:24:01.430Z,82.10
2018-03-23T22:26:33.655Z,82.00
2018-03-23T22:29:05.572Z,81.80
2018-03-23T22:31:37.453Z,81.70
2018-03-23T22:34:10.103Z,81.70
2018-03-23T22:36:41.998Z,81.70
2018-03-23T22:39:14.659Z,81.60
2018-03-23T22:41:46.526Z,81.50
2018-03-23T22:44:19.180Z,80.90
2018-03-23T22:46:51.069Z,81.00
2018-03-23T22:49:23.968Z,80.80
2018-03-23T22:51:55.840Z,80.70
2018-03-23T22:54:27.724Z,80.60
2018-03-23T22:56:59.591Z,80.10
2018-03-23T22:59:31.717Z,80.30
2018-03-23T23:02:04.508Z,80.40
2018-03-23T23:04:36.398Z,80.50
2018-03-23T23:07:08.524Z,80.60
2018-03-23T23:09:40.411Z,80.70
2018-03-23T23:12:12.283Z,80.60
2018-03-23T23:14:44.172Z,80.90
2018-03-23T23:17:16.044Z,80.80
2018-03-23T23:19:48.696Z,81.60
2018-03-23T23:22:20.575Z,81.60
2018-03-23T23:24:52.473Z,80.60
2018-03-23T23:27:24.344Z,80.90
2018-03-23T23:29:56.236Z,81.50
2018-03-23T23:32:28.127Z,81.50
2018-03-23T23:35:00.786Z,80.80
2018-03-23T23:37:32.659Z,80.80
2018-03-23T23:40:05.324Z,81.30
2018-03-23T23:42:37.191Z,81.30
2018-03-23T23:45:09.858Z,81.10
2018-03-23T23:47:41.728Z,80.70
2018-03-23T23:50:13.618Z,81.10
2018-03-23T23:52:45.495Z,81.30
